createdAt,value
2018-05-02T00:01:32.268Z,62.02
2018-05-02T00:03:59.007Z,62.30
2018-05-02T00:06:25.638Z,61.04
2018-05-02T00:08:52.392Z,60.40
2018-05-02T00:11:19.239Z,61.78
2018-05-02T00:13:46.090Z,61.88
2018-05-02T00:16:12.731Z,60.54
2018-05-02T00:18:39.471Z,60.87
2018-05-02T00:21:06.213Z,60.95
2018-05-02T00:23:32.962Z,61.74
2018-05-02T00:26:00.732Z,62.31
2018-05-02T00:28:27.424Z,62.78
2018-05-02T00:30:54.117Z,61.75
2018-05-02T00:33:20.868Z,62.34
2018-05-02T00:35:47.614Z,62.56
2018-05-02T00:38:14.359Z,63.10
2018-05-02T00:40:41.106Z,63.62
2018-05-02T00:43:07.848Z,63.63
2018-05-02T00:45:34.602Z,64.34
2018-05-02T00:48:01.339Z,64.37
2018-05-02T00:50:28.092Z,64.36
2018-05-02T00:52:54.833Z,63.55
2018-05-02T00:55:21.573Z,63.80
2018-05-02T00:57:48.324Z,64.13
2018-05-02T01:00:14.964Z,64.57
2018-05-02T01:02:41.815Z,64.05
2018-05-02T01:05:08.457Z,64.27
2018-05-02T01:07:35.209Z,64.02
2018-05-02T01:10:01.886Z,63.51
2018-05-02T01:12:28.590Z,63.88
2018-05-02T01:14:55.338Z,63.49
2018-05-02T01:17:22.077Z,63.48
2018-05-02T01:19:48.821Z,62.89
2018-05-02T01:22:15.571Z,62.19
2018-05-02T01:24:42.323Z,63.05
2018-05-02T01:27:09.060Z,62.13
2018-05-02T01:29:35.815Z,62.22
2018-05-02T01:32:02.554Z,62.02
2018-05-02T01:34:29.294Z,61.96
2018-05-02T01:36:56.046Z,62.27
2018-05-02T01:39:22.790Z,63.33
2018-05-02T01:41:49.539Z,63.84
2018-05-02T01:44:16.284Z,64.06
2018-05-02T01:46:42.972Z,64.64
2018-05-02T01:49:21.751Z,64.87
2018-05-02T01:51:48.493Z,65.57
2018-05-02T01:54:15.239Z,65.25
2018-05-02T01:56:41.996Z,65.30
2018-05-02T01:59:08.733Z,66.10
2018-05-02T02:01:35.473Z,66.57
2018-05-02T02:04:02.217Z,66.97
2018-05-02T02:06:28.967Z,68.35
2018-05-02T02:08:55.706Z,67.03
2018-05-02T02:11:22.458Z,66.39
2018-05-02T02:13:49.209Z,66.32
2018-05-02T02:16:15.951Z,66.70
2018-05-02T02:18:42.596Z,66.58
2018-05-02T02:21:09.339Z,66.78
2018-05-02T02:23:36.082Z,66.99
2018-05-02T02:26:02.822Z,67.25
2018-05-02T02:28:29.672Z,67.62
2018-05-02T02:30:56.424Z,67.59
2018-05-02T02:33:23.165Z,67.98
2018-05-02T02:35:49.908Z,67.58
2018-05-02T02:38:16.657Z,67.89
2018-05-02T02:40:44.430Z,100.00
2018-05-02T02:43:11.167Z,100.00
2018-05-02T02:45:37.918Z,100.00
2018-05-02T02:48:04.674Z,100.00
2018-05-02T02:50:31.512Z,100.00
2018-05-02T02:52:58.249Z,100.00
2018-05-02T02:55:25.008Z,100.00
2018-05-02T02:57:51.671Z,100.00
2018-05-02T03:00:18.392Z,100.00
2018-05-02T03:02:45.145Z,100.00
2018-05-02T03:05:11.887Z,100.00
2018-05-02T03:07:38.629Z,100.00
2018-05-02T03:10:05.480Z,100.00
2018-05-02T03:12:32.157Z,100.00
2018-05-02T03:14:58.857Z,100.00
2018-05-02T03:17:25.608Z,100.00
2018-05-02T03:19:52.460Z,100.00
2018-05-02T03:22:19.202Z,100.00
2018-05-02T03:24:45.951Z,100.00
2018-05-02T03:27:12.791Z,100.00
2018-05-02T03:29:39.473Z,100.00
2018-05-02T03:32:06.185Z,100.00
2018-05-02T03:34:32.935Z,100.00
2018-05-02T03:36:59.676Z,100.00
2018-05-02T03:39:26.426Z,100.00
2018-05-02T03:41:53.165Z,100.00
2018-05-02T03:44:19.905Z,100.00
2018-05-02T03:46:46.561Z,100.00
2018-05-02T03:49:13.301Z,100.00
2018-05-02T03:51:40.049Z,100.00
2018-05-02T03:54:06.693Z,100.00
2018-05-02T03:56:33.453Z,100.00
2018-05-02T03:59:00.197Z,100.00
2018-05-02T04:01:39.183Z,100.00
2018-05-02T04:04:18.025Z,100.00
2018-05-02T04:09:48.257Z,71.07
2018-05-02T04:12:19.917Z,71.59
2018-05-02T04:14:46.557Z,71.35
2018-05-02T04:17:13.297Z,70.73
2018-05-02T04:19:41.068Z,70.15
2018-05-02T04:22:07.839Z,70.22
2018-05-02T04:24:34.664Z,70.30
2018-05-02T04:27:01.410Z,70.27
2018-05-02T04:29:28.150Z,70.52
2018-05-02T04:31:54.907Z,70.06
2018-05-02T04:34:21.643Z,70.43
2018-05-02T04:36:48.397Z,71.13
2018-05-02T04:39:16.165Z,71.60
2018-05-02T04:41:42.947Z,70.84
2018-05-02T04:44:09.655Z,70.43
2018-05-02T04:46:36.397Z,71.11
2018-05-02T04:49:03.255Z,71.10
2018-05-02T04:51:29.992Z,70.18
2018-05-02T04:53:56.745Z,68.55
2018-05-02T04:56:23.593Z,67.29
2018-05-02T04:58:50.335Z,65.88
2018-05-02T05:01:17.072Z,65.02
2018-05-02T05:03:43.831Z,64.46
2018-05-02T05:06:10.569Z,63.36
2018-05-02T05:08:37.214Z,63.60
2018-05-02T05:11:03.958Z,63.84
2018-05-02T05:13:30.699Z,63.75
2018-05-02T05:15:57.548Z,63.61
2018-05-02T05:18:24.310Z,63.71
2018-05-02T05:20:50.940Z,63.18
2018-05-02T05:23:18.446Z,62.29
2018-05-02T05:25:45.247Z,61.16
2018-05-02T05:28:11.999Z,60.74
2018-05-02T05:30:38.741Z,61.57
2018-05-02T05:33:05.495Z,61.08
2018-05-02T05:35:32.124Z,60.78
2018-05-02T05:37:58.888Z,59.93
2018-05-02T05:40:25.714Z,59.76
2018-05-02T05:42:52.466Z,58.89
2018-05-02T05:45:19.206Z,57.51
2018-05-02T05:47:45.959Z,56.58
2018-05-02T05:50:12.706Z,56.26
2018-05-02T05:52:39.349Z,55.43
2018-05-02T05:55:06.199Z,56.08
2018-05-02T05:57:32.940Z,56.24
2018-05-02T05:59:59.680Z,55.31
2018-05-02T06:02:26.435Z,100.00
2018-05-02T06:04:53.181Z,100.00
2018-05-02T06:07:19.925Z,100.00
2018-05-02T06:09:46.664Z,100.00
2018-05-02T06:12:13.416Z,100.00
2018-05-02T06:14:40.265Z,100.00
2018-05-02T06:17:07.105Z,100.00
2018-05-02T06:19:33.858Z,100.00
2018-05-02T06:22:00.596Z,100.00
2018-05-02T06:24:27.449Z,100.00
2018-05-02T06:26:55.218Z,100.00
2018-05-02T06:29:21.863Z,100.00
2018-05-02T06:31:48.533Z,100.00
2018-05-02T06:34:15.255Z,100.00
2018-05-02T06:36:43.333Z,100.00
2018-05-02T06:39:10.176Z,100.00
2018-05-02T06:41:36.917Z,100.00
2018-05-02T06:44:03.682Z,100.00
2018-05-02T06:46:30.508Z,100.00
2018-05-02T06:48:57.262Z,100.00
2018-05-02T06:51:23.896Z,100.00
2018-05-02T06:53:50.753Z,100.00
2018-05-02T06:56:17.507Z,100.00
2018-05-02T06:58:44.340Z,100.00
2018-05-02T07:01:11.089Z,100.00
2018-05-02T07:03:37.734Z,100.00
2018-05-02T07:06:04.476Z,100.00
2018-05-02T07:08:31.321Z,100.00
2018-05-02T07:10:58.063Z,100.00
2018-05-02T07:13:24.797Z,100.00
2018-05-02T07:15:51.559Z,100.00
2018-05-02T07:18:18.204Z,100.00
2018-05-02T07:20:44.950Z,100.00
2018-05-02T07:23:11.797Z,100.00
2018-05-02T07:25:38.549Z,100.00
2018-05-02T07:28:05.291Z,100.00
2018-05-02T07:30:32.341Z,100.00
2018-05-02T07:32:59.105Z,100.00
2018-05-02T07:35:25.950Z,100.00
2018-05-02T07:37:52.684Z,100.00
2018-05-02T07:40:19.423Z,100.00
2018-05-02T07:42:46.176Z,100.00
2018-05-02T07:45:13.027Z,100.00
2018-05-02T07:47:39.765Z,100.00
2018-05-02T07:50:06.406Z,100.00
2018-05-02T07:52:33.115Z,100.00
2018-05-02T07:54:59.796Z,100.00
2018-05-02T07:57:26.543Z,100.00
2018-05-02T07:59:53.289Z,100.00
2018-05-02T08:02:20.033Z,100.00
2018-05-02T08:04:46.784Z,100.00
2018-05-02T08:07:14.653Z,100.00
2018-05-02T08:09:41.402Z,100.00
2018-05-02T08:12:08.245Z,100.00
2018-05-02T08:14:35.099Z,100.00
2018-05-02T08:17:01.936Z,100.00
2018-05-02T08:19:28.688Z,100.00
2018-05-02T08:21:55.427Z,100.00
2018-05-02T08:24:22.177Z,100.00
2018-05-02T08:26:48.928Z,100.00
2018-05-02T08:29:15.667Z,100.00
2018-05-02T08:31:42.311Z,100.00
2018-05-02T08:34:09.050Z,100.00
2018-05-02T08:36:36.419Z,100.00
2018-05-02T08:39:03.264Z,100.00
2018-05-02T08:41:31.041Z,100.00
2018-05-02T08:43:57.883Z,100.00
2018-05-02T08:46:39.463Z,100.00
2018-05-02T08:49:06.214Z,100.00
2018-05-02T08:51:32.957Z,100.00
2018-05-02T08:53:59.727Z,100.00
2018-05-02T08:56:26.551Z,100.00
2018-05-02T08:58:53.285Z,100.00
2018-05-02T09:01:20.040Z,100.00
2018-05-02T09:03:46.923Z,100.00
2018-05-02T09:06:13.633Z,100.00
2018-05-02T09:08:40.380Z,100.00
2018-05-02T09:11:07.219Z,100.00
2018-05-02T09:13:33.974Z,100.00
2018-05-02T09:16:00.712Z,100.00
2018-05-02T09:18:27.564Z,100.00
2018-05-02T09:20:54.305Z,100.00
2018-05-02T09:23:21.159Z,100.00
2018-05-02T09:25:48.053Z,100.00
2018-05-02T09:28:14.750Z,100.00
2018-05-02T09:30:41.497Z,100.00
2018-05-02T09:33:08.239Z,100.00
2018-05-02T09:35:34.907Z,100.00
2018-05-02T09:38:01.627Z,100.00
2018-05-02T09:40:28.481Z,100.00
2018-05-02T09:42:55.226Z,100.00
2018-05-02T09:45:21.972Z,100.00
2018-05-02T09:47:48.815Z,100.00
2018-05-02T09:50:15.573Z,100.00
2018-05-02T09:52:42.303Z,100.00
2018-05-02T09:55:09.054Z,100.00
2018-05-02T09:57:35.905Z,100.00
2018-05-02T10:00:02.857Z,100.00
2018-05-02T10:02:29.609Z,100.00
2018-05-02T10:04:56.340Z,100.00
2018-05-02T10:07:23.037Z,100.00
2018-05-02T10:09:49.728Z,100.00
2018-05-02T10:12:16.479Z,100.00
2018-05-02T10:14:43.174Z,100.00
2018-05-02T10:17:09.975Z,100.00
2018-05-02T10:19:36.712Z,100.00
2018-05-02T10:22:03.451Z,100.00
2018-05-02T10:24:30.205Z,100.00
2018-05-02T10:26:56.942Z,100.00
2018-05-02T10:29:23.697Z,100.00
2018-05-02T10:31:50.433Z,100.00
2018-05-02T10:34:17.088Z,100.00
2018-05-02T10:36:43.728Z,100.00
2018-05-02T10:39:10.481Z,100.00
2018-05-02T10:41:37.164Z,100.00
2018-05-02T10:44:03.858Z,100.00
2018-05-02T10:46:30.509Z,100.00
2018-05-02T10:48:57.153Z,100.00
2018-05-02T10:51:23.892Z,100.00
2018-05-02T10:53:50.742Z,100.00
2018-05-02T10:56:17.486Z,100.00
2018-05-02T10:58:44.241Z,100.00
2018-05-02T11:01:10.988Z,100.00
2018-05-02T11:03:37.724Z,100.00
2018-05-02T11:06:04.296Z,100.00
2018-05-02T11:08:31.010Z,100.00
2018-05-02T11:10:57.760Z,100.00
2018-05-02T11:13:24.403Z,100.00
2018-05-02T11:15:51.138Z,100.00
2018-05-02T11:18:18.718Z,100.00
2018-05-02T11:20:45.454Z,100.00
2018-05-02T11:23:13.010Z,100.00
2018-05-02T11:25:39.663Z,100.00
2018-05-02T11:28:06.405Z,100.00
2018-05-02T11:30:33.265Z,100.00
2018-05-02T11:33:00.009Z,100.00
2018-05-02T11:35:26.748Z,100.00
2018-05-02T11:37:53.489Z,100.00
2018-05-02T11:40:20.237Z,100.00
2018-05-02T11:42:46.977Z,100.00
2018-05-02T11:45:13.733Z,100.00
2018-05-02T11:47:40.411Z,100.00
2018-05-02T11:50:07.124Z,100.00
2018-05-02T11:52:33.964Z,100.00
2018-05-02T11:55:00.654Z,100.00
2018-05-02T11:57:27.363Z,100.00
2018-05-02T11:59:54.097Z,100.00
2018-05-02T12:02:21.762Z,100.00
2018-05-02T12:04:48.519Z,100.00
2018-05-02T12:07:15.357Z,100.00
2018-05-02T12:09:42.108Z,100.00
2018-05-02T12:12:08.848Z,100.00
2018-05-02T12:14:35.698Z,100.00
2018-05-02T12:17:02.452Z,100.00
2018-05-02T12:19:29.092Z,100.00
2018-05-02T12:21:56.028Z,100.00
2018-05-02T12:24:22.693Z,100.00
2018-05-02T12:26:49.424Z,100.00
2018-05-02T12:29:16.278Z,100.00
2018-05-02T12:31:43.015Z,100.00
2018-05-02T12:34:09.765Z,100.00
2018-05-02T12:36:36.514Z,100.00
2018-05-02T12:39:03.359Z,100.00
2018-05-02T12:41:30.205Z,100.00
2018-05-02T12:43:57.050Z,100.00
2018-05-02T12:46:23.799Z,100.00
2018-05-02T12:48:50.552Z,100.00
2018-05-02T12:51:17.390Z,100.00
2018-05-02T12:53:44.141Z,100.00
2018-05-02T12:56:10.932Z,100.00
2018-05-02T12:58:37.631Z,100.00
2018-05-02T13:01:05.394Z,100.00
2018-05-02T13:03:32.144Z,100.00
2018-05-02T13:05:58.790Z,100.00
2018-05-02T13:08:25.536Z,100.00
2018-05-02T13:10:52.379Z,100.00
2018-05-02T13:13:19.226Z,100.00
2018-05-02T13:15:46.076Z,100.00
2018-05-02T13:18:12.830Z,100.00
2018-05-02T13:20:39.568Z,100.00
2018-05-02T13:23:06.210Z,100.00
2018-05-02T13:25:32.949Z,100.00
2018-05-02T13:27:59.802Z,100.00
2018-05-02T13:30:26.560Z,100.00
2018-05-02T13:32:53.192Z,100.00
2018-05-02T13:35:19.936Z,100.00
2018-05-02T13:37:46.686Z,100.00
2018-05-02T13:40:13.426Z,100.00
2018-05-02T13:42:40.275Z,100.00
2018-05-02T13:45:07.050Z,100.00
2018-05-02T13:47:33.898Z,100.00
2018-05-02T13:50:00.718Z,100.00
2018-05-02T13:52:28.591Z,100.00
2018-05-02T13:54:55.229Z,100.00
2018-05-02T13:57:22.082Z,100.00
2018-05-02T13:59:48.938Z,100.00
2018-05-02T14:02:15.675Z,100.00
2018-05-02T14:04:42.453Z,100.00
2018-05-02T14:07:09.167Z,100.00
2018-05-02T14:09:35.932Z,100.00
2018-05-02T14:12:02.755Z,100.00
2018-05-02T14:14:29.505Z,100.00
2018-05-02T14:16:56.251Z,100.00
2018-05-02T14:19:23.100Z,100.00
2018-05-02T14:21:49.739Z,100.00
2018-05-02T14:24:16.477Z,100.00
2018-05-02T14:26:43.232Z,100.00
2018-05-02T14:29:09.971Z,100.00
2018-05-02T14:31:36.738Z,100.00
2018-05-02T14:34:03.682Z,100.00
2018-05-02T14:36:30.417Z,100.00
2018-05-02T14:38:58.184Z,100.00
2018-05-02T14:41:26.057Z,100.00
2018-05-02T14:43:52.905Z,100.00
2018-05-02T14:46:19.647Z,100.00
2018-05-02T14:48:46.400Z,100.00
2018-05-02T14:51:13.155Z,100.00
2018-05-02T14:53:39.891Z,100.00
2018-05-02T14:56:06.739Z,100.00
2018-05-02T14:58:33.479Z,100.00
2018-05-02T15:01:00.235Z,100.00
2018-05-02T15:03:26.972Z,100.00
2018-05-02T15:05:53.716Z,100.00
2018-05-02T15:08:21.542Z,100.00
2018-05-02T15:10:48.443Z,100.00
2018-05-02T15:13:15.187Z,100.00
2018-05-02T15:15:41.929Z,100.00
2018-05-02T15:18:08.778Z,100.00
2018-05-02T15:20:35.521Z,100.00
2018-05-02T15:23:02.184Z,100.00
2018-05-02T15:25:28.911Z,100.00
2018-05-02T15:27:55.661Z,100.00
2018-05-02T15:30:22.401Z,100.00
2018-05-02T15:32:49.254Z,100.00
2018-05-02T15:35:15.996Z,100.00
2018-05-02T15:37:42.684Z,100.00
2018-05-02T15:40:09.582Z,100.00
2018-05-02T15:44:17.548Z,33.18
2018-05-02T15:46:44.296Z,33.92
2018-05-02T15:49:11.030Z,32.82
2018-05-02T15:51:37.679Z,33.17
2018-05-02T15:54:04.369Z,33.40
2018-05-02T15:56:31.582Z,33.25
2018-05-02T15:58:59.799Z,33.39
2018-05-02T16:01:26.602Z,33.97
2018-05-02T16:03:53.303Z,34.21
2018-05-02T16:06:19.992Z,35.58
2018-05-02T16:08:47.042Z,36.08
2018-05-02T16:11:13.797Z,36.89
2018-05-02T16:13:40.634Z,37.32
2018-05-02T16:16:08.409Z,37.59
2018-05-02T16:18:35.148Z,38.47
2018-05-02T16:21:01.897Z,38.00
2018-05-02T16:23:28.641Z,38.41
2018-05-02T16:25:55.461Z,37.33
2018-05-02T16:28:22.131Z,37.53
2018-05-02T16:30:48.883Z,37.55
2018-05-02T16:33:15.571Z,37.88
2018-05-02T16:35:42.370Z,37.43
2018-05-02T16:38:09.114Z,37.51
2018-05-02T16:40:36.065Z,37.83
2018-05-02T16:43:02.914Z,38.34
2018-05-02T16:45:29.669Z,38.92
2018-05-02T16:47:56.412Z,39.29
2018-05-02T16:50:23.150Z,39.74
2018-05-02T16:52:49.898Z,39.92
2018-05-02T16:55:16.637Z,40.13
2018-05-02T16:57:43.358Z,40.78
2018-05-02T17:00:10.230Z,41.47
2018-05-02T17:02:37.080Z,41.79
2018-05-02T17:07:45.205Z,43.23
2018-05-02T17:10:11.955Z,44.13
2018-05-02T17:12:39.758Z,44.81
2018-05-02T17:15:06.468Z,45.44
2018-05-02T17:17:33.215Z,46.38
2018-05-02T17:19:59.959Z,47.19
2018-05-02T17:22:27.741Z,47.40
2018-05-02T17:24:54.622Z,48.11
2018-05-02T17:27:21.532Z,48.51
2018-05-02T17:29:49.291Z,49.41
2018-05-02T17:32:16.042Z,50.37
2018-05-02T17:34:42.897Z,51.13
2018-05-02T17:37:10.762Z,51.47
2018-05-02T17:39:37.502Z,52.36
2018-05-02T17:42:04.457Z,53.27
2018-05-02T17:44:31.304Z,53.57
2018-05-02T17:46:58.048Z,54.23
2018-05-02T17:49:24.797Z,54.98
2018-05-02T17:51:51.539Z,55.54
2018-05-02T17:54:18.299Z,55.81
2018-05-02T17:56:45.028Z,56.84
2018-05-02T17:59:11.885Z,57.71
2018-05-02T18:01:38.522Z,58.28
2018-05-02T18:04:05.272Z,58.82
2018-05-02T18:06:32.114Z,59.23
2018-05-02T18:08:58.863Z,59.97
2018-05-02T18:11:25.603Z,60.36
2018-05-02T18:14:01.368Z,61.06
2018-05-02T18:16:28.104Z,61.73
2018-05-02T18:18:54.845Z,62.17
2018-05-02T18:21:21.698Z,62.89
2018-05-02T18:23:48.447Z,63.32
2018-05-02T18:26:15.191Z,63.96
2018-05-02T18:28:42.038Z,64.15
2018-05-02T18:31:09.805Z,64.87
2018-05-02T18:33:36.551Z,65.23
2018-05-02T18:36:03.406Z,65.89
2018-05-02T18:38:30.142Z,65.85
2018-05-02T18:40:56.893Z,66.38
2018-05-02T18:43:24.865Z,66.55
2018-05-02T18:45:51.612Z,66.92
2018-05-02T18:48:18.356Z,67.35
2018-05-02T18:50:45.062Z,67.80
2018-05-02T18:53:11.836Z,68.33
2018-05-02T18:55:38.515Z,68.51
2018-05-02T18:58:05.232Z,68.72
2018-05-02T19:00:31.980Z,69.19
2018-05-02T19:02:58.623Z,70.02
2018-05-02T19:05:25.573Z,70.87
2018-05-02T19:07:52.328Z,71.03
2018-05-02T19:10:19.067Z,71.45
2018-05-02T19:12:45.814Z,71.86
2018-05-02T19:15:12.456Z,71.46
2018-05-02T19:17:45.337Z,72.98
2018-05-02T19:20:18.017Z,73.06
2018-05-02T19:22:44.661Z,73.81
2018-05-02T19:25:17.551Z,74.09
2018-05-02T19:27:44.192Z,74.45
2018-05-02T19:30:10.943Z,74.70
2018-05-02T19:32:43.521Z,74.99
2018-05-02T19:35:10.271Z,75.24
2018-05-02T19:37:37.012Z,75.31
2018-05-02T19:40:09.697Z,75.60
2018-05-02T19:42:43.747Z,76.01
2018-05-02T19:45:10.592Z,76.25
2018-05-02T19:47:37.294Z,76.34
2018-05-02T19:50:04.865Z,76.46
2018-05-02T19:55:25.668Z,76.53
2018-05-02T19:57:52.522Z,76.57
2018-05-02T20:00:25.511Z,76.39
2018-05-02T20:02:58.391Z,76.54
2018-05-02T20:05:25.144Z,76.32
2018-05-02T20:07:51.883Z,76.50
2018-05-02T20:10:24.507Z,76.41
2018-05-02T20:12:57.284Z,76.48
2018-05-02T20:15:24.094Z,76.70
2018-05-02T20:17:50.838Z,77.08
2018-05-02T20:20:17.493Z,77.00
2018-05-02T20:22:44.327Z,76.99
2018-05-02T20:25:11.120Z,77.32
2018-05-02T20:27:37.818Z,77.45
2018-05-02T20:30:04.779Z,77.65
2018-05-02T20:32:31.523Z,77.85
2018-05-02T20:34:58.261Z,77.94
2018-05-02T20:37:26.033Z,77.99
2018-05-02T20:39:52.886Z,78.29
2018-05-02T20:42:19.623Z,78.31
2018-05-02T20:44:46.317Z,78.60
2018-05-02T20:47:13.014Z,78.70
2018-05-02T20:49:39.771Z,78.84
2018-05-02T20:52:06.509Z,79.01
2018-05-02T20:54:33.248Z,79.25
2018-05-02T20:56:59.999Z,79.46
2018-05-02T20:59:26.747Z,79.71
2018-05-02T21:01:53.491Z,79.92
2018-05-02T21:04:20.231Z,79.97
2018-05-02T21:06:46.992Z,80.05
2018-05-02T21:09:13.722Z,80.34
2018-05-02T21:11:40.476Z,80.21
2018-05-02T21:14:07.212Z,80.34
2018-05-02T21:16:33.865Z,80.49
2018-05-02T21:19:00.607Z,80.61
2018-05-02T21:21:27.446Z,80.69
2018-05-02T21:23:54.099Z,80.84
2018-05-02T21:26:20.839Z,80.88
2018-05-02T21:28:47.588Z,81.11
2018-05-02T21:31:14.329Z,81.15
2018-05-02T21:33:41.024Z,81.09
2018-05-02T21:36:07.822Z,81.32
2018-05-02T21:38:34.465Z,81.56
2018-05-02T21:41:01.214Z,81.44
2018-05-02T21:43:27.851Z,81.42
2018-05-02T21:45:54.496Z,82.31
2018-05-02T21:48:21.248Z,82.14
2018-05-02T21:50:47.985Z,82.29
2018-05-02T21:53:14.632Z,82.50
2018-05-02T21:55:41.478Z,82.67
2018-05-02T21:58:08.129Z,82.91
2018-05-02T22:00:34.870Z,82.69
2018-05-02T22:03:01.624Z,83.09
2018-05-02T22:05:28.361Z,83.35
2018-05-02T22:07:55.071Z,83.54
2018-05-02T22:10:21.755Z,82.96
2018-05-02T22:12:48.590Z,83.63
2018-05-02T22:15:15.246Z,83.79
2018-05-02T22:17:41.886Z,83.49
2018-05-02T22:20:08.628Z,83.82
2018-05-02T22:22:35.380Z,84.13
2018-05-02T22:25:02.117Z,83.91
2018-05-02T22:27:28.866Z,83.97
2018-05-02T22:29:55.606Z,84.14
2018-05-02T22:32:22.360Z,84.12
2018-05-02T22:34:49.098Z,83.98
2018-05-02T22:37:15.855Z,84.41
2018-05-02T22:39:42.593Z,84.17
2018-05-02T22:42:09.348Z,84.72
2018-05-02T22:44:35.983Z,84.71
2018-05-02T22:47:02.726Z,84.68
2018-05-02T22:49:29.475Z,85.27
2018-05-02T22:51:56.227Z,85.25
2018-05-02T22:54:22.969Z,85.78
2018-05-02T22:56:49.809Z,85.00
2018-05-02T22:59:16.585Z,85.59
2018-05-02T23:01:43.206Z,84.95
2018-05-02T23:04:09.950Z,85.48
2018-05-02T23:06:36.690Z,85.86
2018-05-02T23:09:03.542Z,86.45
2018-05-02T23:11:30.281Z,87.13
2018-05-02T23:13:57.034Z,87.42
2018-05-02T23:16:24.802Z,87.63
2018-05-02T23:18:51.545Z,87.24
2018-05-02T23:21:18.287Z,87.49
2018-05-02T23:23:45.037Z,87.69
2018-05-02T23:26:11.775Z,87.54
2018-05-02T23:28:39.445Z,87.85
2018-05-02T23:31:06.086Z,87.85
2018-05-02T23:33:32.939Z,88.30
2018-05-02T23:35:59.687Z,88.49
2018-05-02T23:38:26.436Z,88.02
2018-05-02T23:40:53.279Z,88.19
2018-05-02T23:43:20.021Z,88.18
2018-05-02T23:45:46.774Z,88.43
2018-05-02T23:48:13.475Z,88.97
2018-05-02T23:50:40.096Z,88.90
2018-05-02T23:53:06.653Z,89.26
2018-05-02T23:55:33.337Z,89.34
2018-05-02T23:58:00.087Z,89.66
